createdAt,value
2018-07-27T00:01:35.509Z,55.59
2018-07-27T00:04:01.555Z,55.48
2018-07-27T00:06:27.620Z,56.02
2018-07-27T00:08:53.654Z,55.46
2018-07-27T00:11:19.708Z,55.97
2018-07-27T00:13:45.753Z,56.32
2018-07-27T00:16:11.918Z,56.86
2018-07-27T00:18:37.950Z,54.63
2018-07-27T00:21:04.169Z,56.68
2018-07-27T00:23:30.218Z,56.46
2018-07-27T00:25:57.385Z,56.48
2018-07-27T00:28:23.422Z,57.89
2018-07-27T00:30:49.477Z,58.39
2018-07-27T00:33:15.514Z,58.91
2018-07-27T00:35:41.565Z,58.82
2018-07-27T00:38:07.702Z,57.61
2018-07-27T00:40:33.734Z,56.92
2018-07-27T00:42:59.808Z,58.97
2018-07-27T00:45:25.850Z,58.90
2018-07-27T00:47:51.879Z,59.29
2018-07-27T00:50:17.942Z,60.29
2018-07-27T00:52:43.977Z,58.74
2018-07-27T00:55:10.002Z,59.53
2018-07-27T00:57:36.034Z,60.53
2018-07-27T01:00:02.072Z,61.03
2018-07-27T01:02:28.106Z,59.89
2018-07-27T01:04:54.141Z,59.70
2018-07-27T01:07:20.176Z,59.70
2018-07-27T01:09:46.219Z,59.54
2018-07-27T01:12:12.597Z,59.74
2018-07-27T01:14:38.721Z,59.25
2018-07-27T01:17:04.765Z,59.79
2018-07-27T01:19:30.795Z,61.49
2018-07-27T01:21:56.833Z,59.35
2018-07-27T01:24:22.914Z,59.91
2018-07-27T01:26:48.952Z,59.98
2018-07-27T01:29:14.986Z,59.68
2018-07-27T01:31:41.030Z,60.07
2018-07-27T01:34:07.109Z,60.10
2018-07-27T01:36:33.178Z,60.59
2018-07-27T01:38:59.214Z,61.73
2018-07-27T01:41:25.251Z,62.37
2018-07-27T01:43:51.286Z,60.04
2018-07-27T01:46:17.343Z,61.13
2018-07-27T01:48:43.375Z,60.11
2018-07-27T01:51:09.434Z,60.92
2018-07-27T01:53:35.473Z,61.30
2018-07-27T01:56:01.535Z,60.99
2018-07-27T01:58:27.570Z,61.94
2018-07-27T02:00:53.624Z,60.51
2018-07-27T02:03:19.969Z,61.96
2018-07-27T02:05:46.009Z,62.12
2018-07-27T02:08:12.046Z,63.11
2018-07-27T02:10:38.078Z,61.45
2018-07-27T02:13:04.161Z,61.76
2018-07-27T02:15:30.167Z,63.58
2018-07-27T02:17:56.281Z,61.97
2018-07-27T02:20:22.318Z,63.01
2018-07-27T02:22:48.358Z,62.71
2018-07-27T02:25:14.391Z,61.69
2018-07-27T02:27:40.431Z,62.54
2018-07-27T02:30:06.461Z,62.40
2018-07-27T02:32:32.503Z,63.74
2018-07-27T02:34:58.541Z,62.79
2018-07-27T02:37:24.664Z,64.73
2018-07-27T02:39:50.721Z,63.29
2018-07-27T02:42:16.757Z,64.51
2018-07-27T02:44:42.791Z,63.79
2018-07-27T02:47:08.822Z,64.63
2018-07-27T02:49:34.850Z,63.46
2018-07-27T02:52:00.882Z,63.47
2018-07-27T02:54:26.920Z,62.64
2018-07-27T02:56:52.962Z,63.43
2018-07-27T02:59:18.994Z,62.64
2018-07-27T03:01:45.032Z,63.08
2018-07-27T03:04:11.069Z,64.13
2018-07-27T03:06:37.098Z,64.03
2018-07-27T03:09:03.131Z,64.48
2018-07-27T03:11:29.166Z,65.36
2018-07-27T03:13:55.198Z,66.23
2018-07-27T03:16:21.229Z,65.18
2018-07-27T03:18:47.262Z,66.34
2018-07-27T03:21:13.326Z,66.51
2018-07-27T03:23:39.362Z,65.78
2018-07-27T03:26:05.394Z,66.80
2018-07-27T03:28:31.459Z,67.53
2018-07-27T03:30:57.497Z,66.99
2018-07-27T03:33:23.562Z,65.08
2018-07-27T03:35:49.628Z,66.12
2018-07-27T03:38:15.706Z,65.21
2018-07-27T03:40:41.741Z,67.28
2018-07-27T03:43:07.799Z,66.97
2018-07-27T03:45:33.829Z,65.43
2018-07-27T03:47:59.949Z,66.59
2018-07-27T03:50:26.026Z,67.12
2018-07-27T03:52:52.061Z,66.95
2018-07-27T03:55:18.096Z,65.53
2018-07-27T03:57:44.130Z,67.27
2018-07-27T04:00:10.182Z,67.12
2018-07-27T04:02:36.220Z,67.33
2018-07-27T04:05:02.275Z,66.98
2018-07-27T04:07:28.308Z,66.49
2018-07-27T04:09:54.370Z,68.03
2018-07-27T04:12:20.410Z,66.92
2018-07-27T04:14:46.465Z,68.11
2018-07-27T04:17:12.497Z,67.07
2018-07-27T04:19:38.554Z,68.55
2018-07-27T04:22:04.593Z,68.73
2018-07-27T04:24:30.628Z,68.04
2018-07-27T04:26:56.668Z,68.17
2018-07-27T04:29:22.703Z,68.16
2018-07-27T04:31:48.742Z,68.54
2018-07-27T04:34:14.769Z,69.49
2018-07-27T04:36:40.993Z,68.84
2018-07-27T04:39:07.033Z,68.73
2018-07-27T04:41:33.070Z,68.24
2018-07-27T04:43:59.142Z,69.73
2018-07-27T04:46:25.179Z,68.45
2018-07-27T04:48:51.209Z,69.10
2018-07-27T04:51:17.246Z,69.34
2018-07-27T04:53:43.290Z,69.05
2018-07-27T04:56:09.408Z,68.20
2018-07-27T04:58:35.438Z,68.34
2018-07-27T05:01:01.494Z,69.23
2018-07-27T05:03:27.526Z,67.52
2018-07-27T05:05:53.594Z,69.67
2018-07-27T05:08:19.626Z,67.58
2018-07-27T05:10:45.658Z,66.92
2018-07-27T05:13:11.692Z,68.71
2018-07-27T05:15:37.742Z,67.38
2018-07-27T05:18:03.787Z,68.45
2018-07-27T05:20:29.814Z,67.74
2018-07-27T05:22:55.846Z,67.86
2018-07-27T05:25:21.890Z,66.05
2018-07-27T05:27:47.930Z,65.72
2018-07-27T05:30:13.964Z,67.00
2018-07-27T05:32:40.007Z,67.22
2018-07-27T05:35:06.052Z,67.10
2018-07-27T05:37:32.082Z,66.34
2018-07-27T05:39:58.122Z,66.87
2018-07-27T05:42:24.163Z,66.75
2018-07-27T05:44:50.198Z,64.78
2018-07-27T05:47:16.279Z,65.62
2018-07-27T05:49:42.417Z,64.72
2018-07-27T05:52:08.710Z,64.67
2018-07-27T05:54:35.269Z,65.11
2018-07-27T05:57:01.351Z,66.52
2018-07-27T05:59:27.471Z,65.93
2018-07-27T06:01:53.901Z,65.76
2018-07-27T06:04:20.148Z,65.25
2018-07-27T06:06:46.197Z,64.50
2018-07-27T06:09:12.807Z,62.27
2018-07-27T06:11:39.081Z,64.10
2018-07-27T06:14:05.362Z,63.65
2018-07-27T06:16:32.003Z,61.18
2018-07-27T06:18:58.167Z,62.11
2018-07-27T06:24:09.523Z,60.59
2018-07-27T06:26:35.607Z,59.97
2018-07-27T06:29:02.066Z,58.39
2018-07-27T06:31:28.200Z,58.05
2018-07-27T06:33:54.706Z,58.26
2018-07-27T06:36:20.932Z,58.51
2018-07-27T06:38:47.007Z,57.35
2018-07-27T06:41:13.472Z,58.48
2018-07-27T06:43:39.590Z,56.54
2018-07-27T06:46:05.784Z,56.94
2018-07-27T06:48:31.878Z,55.67
2018-07-27T06:50:58.037Z,53.39
2018-07-27T06:53:24.299Z,53.77
2018-07-27T06:55:50.455Z,52.38
2018-07-27T06:58:16.533Z,52.78
2018-07-27T07:00:42.639Z,53.67
2018-07-27T07:03:08.722Z,53.61
2018-07-27T07:05:34.803Z,53.10
2018-07-27T07:08:01.865Z,51.44
2018-07-27T07:10:27.918Z,51.09
2018-07-27T07:12:54.079Z,50.15
2018-07-27T07:15:20.121Z,50.81
2018-07-27T07:17:48.322Z,50.42
2018-07-27T07:20:14.488Z,48.98
2018-07-27T07:22:40.635Z,49.89
2018-07-27T07:25:06.711Z,49.76
2018-07-27T07:27:32.810Z,49.56
2018-07-27T07:29:58.845Z,49.48
2018-07-27T07:32:24.910Z,48.33
2018-07-27T07:34:50.968Z,47.83
2018-07-27T07:37:17.026Z,49.56
2018-07-27T07:39:43.087Z,47.93
2018-07-27T07:42:09.404Z,48.34
2018-07-27T07:44:35.434Z,47.62
2018-07-27T07:47:01.490Z,46.33
2018-07-27T07:49:27.575Z,46.27
2018-07-27T07:51:53.607Z,45.34
2018-07-27T07:54:19.653Z,45.85
2018-07-27T07:56:45.691Z,45.69
2018-07-27T07:59:11.734Z,44.27
2018-07-27T08:01:37.828Z,44.70
2018-07-27T08:04:03.858Z,43.84
2018-07-27T08:06:29.945Z,42.89
2018-07-27T08:08:56.003Z,42.07
2018-07-27T08:11:22.062Z,42.00
2018-07-27T08:13:48.118Z,42.12
2018-07-27T08:16:14.162Z,43.00
2018-07-27T08:18:40.235Z,42.93
2018-07-27T08:21:06.283Z,41.24
2018-07-27T08:23:32.327Z,40.53
2018-07-27T08:25:58.439Z,41.08
2018-07-27T08:28:24.796Z,40.34
2018-07-27T08:30:50.863Z,39.56
2018-07-27T08:33:17.254Z,39.17
2018-07-27T08:35:43.312Z,40.00
2018-07-27T08:38:09.389Z,39.40
2018-07-27T08:40:35.730Z,38.37
2018-07-27T08:43:01.812Z,38.70
2018-07-27T08:45:27.852Z,37.60
2018-07-27T08:47:53.937Z,38.36
2018-07-27T08:50:20.010Z,37.27
2018-07-27T08:52:46.318Z,37.79
2018-07-27T08:55:12.444Z,37.80
2018-07-27T08:57:38.558Z,37.16
2018-07-27T09:00:04.596Z,37.95
2018-07-27T09:02:30.641Z,34.86
2018-07-27T09:04:56.724Z,34.12
2018-07-27T09:07:22.778Z,35.58
2018-07-27T09:09:48.818Z,35.75
2018-07-27T09:12:14.865Z,32.96
2018-07-27T09:14:40.960Z,33.25
2018-07-27T09:17:06.999Z,33.93
2018-07-27T09:19:33.058Z,31.62
2018-07-27T09:21:59.100Z,31.82
2018-07-27T09:24:25.273Z,29.92
2018-07-27T09:26:53.413Z,32.28
2018-07-27T09:29:19.465Z,32.50
2018-07-27T09:31:45.510Z,30.59
2018-07-27T09:34:11.715Z,32.09
2018-07-27T09:36:37.789Z,31.47
2018-07-27T09:39:03.926Z,30.50
2018-07-27T09:41:29.989Z,30.77
2018-07-27T09:43:56.038Z,31.86
2018-07-27T09:46:23.133Z,32.19
2018-07-27T09:48:49.179Z,29.97
2018-07-27T09:51:15.232Z,30.18
2018-07-27T09:53:43.619Z,30.53
2018-07-27T09:56:09.820Z,30.43
2018-07-27T09:58:35.922Z,30.19
2018-07-27T10:01:02.038Z,29.10
2018-07-27T10:03:28.101Z,29.42
2018-07-27T10:05:54.160Z,30.25
2018-07-27T10:08:20.262Z,30.08
2018-07-27T10:10:46.425Z,28.81
2018-07-27T10:13:12.569Z,28.77
2018-07-27T10:15:40.448Z,28.33
2018-07-27T10:18:06.506Z,27.60
2018-07-27T10:20:32.587Z,27.40
2018-07-27T10:22:58.890Z,28.11
2018-07-27T10:25:25.033Z,28.77
2018-07-27T10:27:51.080Z,28.84
2018-07-27T10:30:17.183Z,26.53
2018-07-27T10:32:43.246Z,27.37
2018-07-27T10:35:09.309Z,27.95
2018-07-27T10:37:35.390Z,28.06
2018-07-27T10:40:01.804Z,28.06
2018-07-27T10:42:27.905Z,27.68
2018-07-27T10:44:54.420Z,27.75
2018-07-27T10:47:20.453Z,27.72
2018-07-27T10:49:46.495Z,27.45
2018-07-27T10:52:12.559Z,26.30
2018-07-27T10:54:38.679Z,25.51
2018-07-27T10:57:04.838Z,27.36
2018-07-27T10:59:30.882Z,26.55
2018-07-27T11:01:56.939Z,26.45
2018-07-27T11:04:22.973Z,25.98
2018-07-27T11:06:49.055Z,25.77
2018-07-27T11:09:15.109Z,26.58
2018-07-27T11:11:41.166Z,26.72
2018-07-27T11:14:07.541Z,27.17
2018-07-27T11:16:33.602Z,26.49
2018-07-27T11:18:59.647Z,26.21
2018-07-27T11:21:25.692Z,26.88
2018-07-27T11:23:51.783Z,25.72
2018-07-27T11:26:17.828Z,25.49
2018-07-27T11:28:43.969Z,25.75
2018-07-27T11:31:10.068Z,24.39
2018-07-27T11:33:36.110Z,21.96
2018-07-27T11:36:02.184Z,23.31
2018-07-27T11:38:28.230Z,23.11
2018-07-27T11:40:54.288Z,24.55
2018-07-27T11:43:20.338Z,24.85
2018-07-27T11:45:46.435Z,23.46
2018-07-27T11:48:12.556Z,23.08
2018-07-27T11:50:38.597Z,23.65
2018-07-27T11:53:04.635Z,22.10
2018-07-27T11:55:30.760Z,23.48
2018-07-27T11:57:56.823Z,22.38
2018-07-27T12:00:23.010Z,22.26
2018-07-27T12:02:49.024Z,20.83
2018-07-27T12:05:15.045Z,20.05
2018-07-27T12:07:41.277Z,20.13
2018-07-27T12:10:07.293Z,19.23
2018-07-27T12:12:33.528Z,18.11
2018-07-27T12:14:59.728Z,17.71
2018-07-27T12:17:25.863Z,16.23
2018-07-27T12:19:51.881Z,16.44
2018-07-27T12:22:17.908Z,14.96
2018-07-27T12:24:44.112Z,14.91
2018-07-27T12:27:10.243Z,14.35
2018-07-27T12:29:36.635Z,13.44
2018-07-27T12:32:03.068Z,12.68
2018-07-27T12:34:29.287Z,11.09
2018-07-27T12:36:55.286Z,11.32
2018-07-27T12:39:21.383Z,11.43
2018-07-27T12:41:47.534Z,9.92
2018-07-27T12:44:13.579Z,9.00
2018-07-27T12:46:39.975Z,9.94
2018-07-27T12:49:05.996Z,8.66
2018-07-27T12:51:32.070Z,9.31
2018-07-27T12:53:58.137Z,8.82
2018-07-27T12:56:24.233Z,8.46
2018-07-27T12:58:50.643Z,7.82
2018-07-27T13:01:16.695Z,7.74
2018-07-27T13:03:42.779Z,6.84
2018-07-27T13:06:08.810Z,7.66
2018-07-27T13:08:34.844Z,6.20
2018-07-27T13:11:00.867Z,6.48
2018-07-27T13:13:26.923Z,6.68
2018-07-27T13:15:57.094Z,5.67
2018-07-27T13:18:23.125Z,6.51
2018-07-27T13:20:49.139Z,5.47
2018-07-27T13:23:15.189Z,5.35
2018-07-27T13:25:41.273Z,5.34
2018-07-27T13:28:07.296Z,5.90
2018-07-27T13:30:33.337Z,5.85
2018-07-27T13:35:25.456Z,4.69
2018-07-27T13:37:51.566Z,5.16
2018-07-27T13:40:17.583Z,5.31
2018-07-27T13:42:43.619Z,5.41
2018-07-27T13:45:09.996Z,5.13
2018-07-27T13:47:36.034Z,5.70
2018-07-27T13:50:02.051Z,4.58
2018-07-27T13:52:28.374Z,5.76
2018-07-27T13:54:54.409Z,4.73
2018-07-27T13:57:20.424Z,4.56
2018-07-27T13:59:46.511Z,4.87
2018-07-27T14:02:12.564Z,4.74
2018-07-27T14:04:38.578Z,5.32
2018-07-27T14:07:04.581Z,4.11
2018-07-27T14:09:30.709Z,4.15
2018-07-27T14:11:56.752Z,4.06
2018-07-27T14:14:22.864Z,4.55
2018-07-27T14:16:48.870Z,3.94
2018-07-27T14:19:14.908Z,4.79
2018-07-27T14:21:41.125Z,4.81
2018-07-27T14:24:07.133Z,4.17
2018-07-27T14:26:33.172Z,4.13
2018-07-27T14:28:59.192Z,3.01
2018-07-27T14:31:25.222Z,3.75
2018-07-27T14:33:51.269Z,3.40
2018-07-27T14:36:17.325Z,4.05
2018-07-27T14:38:43.747Z,3.05
2018-07-27T14:41:09.830Z,3.44
2018-07-27T14:43:35.866Z,3.43
2018-07-27T14:46:02.940Z,3.38
2018-07-27T14:48:29.024Z,3.68
2018-07-27T14:50:55.154Z,3.18
2018-07-27T14:53:21.206Z,2.49
2018-07-27T14:55:47.246Z,3.29
2018-07-27T14:58:13.298Z,2.87
2018-07-27T15:00:39.323Z,3.67
2018-07-27T15:03:05.375Z,3.36
2018-07-27T15:05:31.396Z,2.43
2018-07-27T15:07:57.838Z,3.07
2018-07-27T15:10:23.963Z,3.56
2018-07-27T15:12:50.047Z,3.33
2018-07-27T15:15:16.123Z,2.53
2018-07-27T15:17:42.211Z,2.91
2018-07-27T15:20:08.754Z,2.68
2018-07-27T15:22:34.784Z,2.57
2018-07-27T15:25:00.818Z,2.36
2018-07-27T15:27:26.839Z,2.54
2018-07-27T15:29:52.828Z,3.03
2018-07-27T15:32:18.848Z,2.55
2018-07-27T15:34:44.868Z,2.48
2018-07-27T15:37:10.994Z,2.76
2018-07-27T15:39:37.036Z,2.98
2018-07-27T15:42:03.065Z,3.46
2018-07-27T15:44:29.112Z,2.83
2018-07-27T15:46:55.111Z,3.06
2018-07-27T15:49:21.171Z,3.84
2018-07-27T15:51:47.214Z,3.34
2018-07-27T15:54:13.229Z,3.74
2018-07-27T15:56:39.279Z,3.50
2018-07-27T15:59:05.305Z,3.78
2018-07-27T16:01:31.377Z,3.63
2018-07-27T16:03:57.426Z,4.36
2018-07-27T16:06:23.449Z,3.84
2018-07-27T16:08:49.838Z,2.91
2018-07-27T16:11:15.891Z,3.97
2018-07-27T16:13:41.909Z,3.24
2018-07-27T16:16:07.963Z,3.94
2018-07-27T16:18:34.031Z,3.30
2018-07-27T16:21:00.379Z,3.89
2018-07-27T16:23:26.412Z,3.78
2018-07-27T16:28:24.711Z,3.99
2018-07-27T16:30:50.763Z,5.06
2018-07-27T16:33:16.932Z,4.25
2018-07-27T16:35:42.963Z,5.68
2018-07-27T16:38:09.309Z,6.78
2018-07-27T16:40:35.337Z,6.74
2018-07-27T16:45:12.417Z,7.08
2018-07-27T16:47:38.849Z,6.64
2018-07-27T16:50:05.283Z,6.77
2018-07-27T16:52:31.328Z,7.52
2018-07-27T16:54:57.397Z,8.29
2018-07-27T16:57:23.400Z,8.23
2018-07-27T16:59:49.502Z,8.59
2018-07-27T17:02:15.502Z,8.14
2018-07-27T17:04:41.566Z,7.44
2018-07-27T17:07:07.599Z,8.32
2018-07-27T17:09:33.699Z,7.74
2018-07-27T17:11:59.751Z,9.63
2018-07-27T17:14:25.815Z,9.59
2018-07-27T17:16:52.161Z,9.66
2018-07-27T17:19:18.278Z,9.15
2018-07-27T17:21:44.368Z,10.26
2018-07-27T17:24:10.434Z,10.02
2018-07-27T17:26:36.467Z,10.17
2018-07-27T17:29:02.710Z,10.25
2018-07-27T17:31:28.754Z,9.75
2018-07-27T17:33:54.787Z,9.73
2018-07-27T17:36:20.817Z,11.21
2018-07-27T17:38:47.142Z,11.47
2018-07-27T17:41:13.488Z,11.89
2018-07-27T17:43:39.535Z,12.25
2018-07-27T17:46:05.614Z,12.07
2018-07-27T17:48:31.636Z,12.00
2018-07-27T17:50:58.008Z,12.45
2018-07-27T17:53:24.059Z,11.65
2018-07-27T17:55:50.448Z,11.69
2018-07-27T17:58:16.552Z,11.90
2018-07-27T18:00:42.885Z,11.80
2018-07-27T18:03:08.899Z,12.63
2018-07-27T18:05:34.952Z,12.29
2018-07-27T18:08:01.099Z,13.29
2018-07-27T18:10:27.382Z,13.61
2018-07-27T18:12:53.424Z,15.14
2018-07-27T18:15:19.469Z,15.21
2018-07-27T18:17:45.934Z,14.76
2018-07-27T18:20:11.947Z,15.55
2018-07-27T18:22:37.945Z,16.53
2018-07-27T18:25:04.011Z,16.95
2018-07-27T18:27:30.039Z,16.58
2018-07-27T18:29:56.048Z,17.26
2018-07-27T18:32:22.086Z,18.42
2018-07-27T18:34:48.125Z,17.13
2018-07-27T18:37:14.155Z,17.70
2018-07-27T18:39:40.181Z,19.30
2018-07-27T18:42:06.200Z,19.23
2018-07-27T18:44:32.206Z,22.17
2018-07-27T18:46:58.217Z,23.38
2018-07-27T18:49:24.252Z,24.20
2018-07-27T18:51:50.580Z,26.15
2018-07-27T18:54:16.929Z,27.19
2018-07-27T18:56:42.970Z,26.89
2018-07-27T18:59:09.013Z,26.55
2018-07-27T19:01:35.026Z,29.93
2018-07-27T19:04:01.025Z,31.43
2018-07-27T19:06:27.058Z,30.57
2018-07-27T19:08:53.060Z,30.05
2018-07-27T19:11:19.080Z,33.06
2018-07-27T19:13:45.122Z,31.40
2018-07-27T19:16:11.139Z,32.44
2018-07-27T19:18:37.163Z,32.92
2018-07-27T19:21:03.201Z,34.41
2018-07-27T19:23:29.270Z,34.39
2018-07-27T19:25:55.268Z,36.61
2018-07-27T19:28:21.340Z,35.85
2018-07-27T19:30:47.390Z,34.61
2018-07-27T19:33:13.409Z,35.50
2018-07-27T19:35:39.397Z,36.59
2018-07-27T19:38:05.399Z,37.13
2018-07-27T19:40:31.419Z,38.02
2018-07-27T19:42:57.431Z,38.08
2018-07-27T19:45:23.471Z,38.72
2018-07-27T19:47:49.497Z,37.92
2018-07-27T19:50:15.491Z,38.44
2018-07-27T19:52:41.515Z,38.51
2018-07-27T19:55:07.559Z,39.56
2018-07-27T19:57:33.816Z,38.87
2018-07-27T20:00:00.149Z,40.87
2018-07-27T20:02:26.174Z,38.02
2018-07-27T20:04:52.223Z,38.15
2018-07-27T20:07:18.244Z,38.57
2018-07-27T20:09:44.282Z,38.95
2018-07-27T20:12:10.300Z,39.42
2018-07-27T20:14:36.338Z,39.25
2018-07-27T20:17:02.395Z,39.52
2018-07-27T20:19:28.388Z,43.46
2018-07-27T20:21:54.395Z,42.54
2018-07-27T20:24:20.445Z,40.48
2018-07-27T20:26:46.474Z,39.69
2018-07-27T20:29:12.575Z,40.33
2018-07-27T20:31:38.579Z,40.61
2018-07-27T20:34:04.610Z,39.73
2018-07-27T20:36:30.649Z,41.84
2018-07-27T20:38:56.668Z,40.35
2018-07-27T20:41:22.814Z,41.46
2018-07-27T20:43:48.848Z,41.48
2018-07-27T20:46:14.954Z,42.07
2018-07-27T20:48:41.313Z,42.19
2018-07-27T20:51:07.279Z,40.65
2018-07-27T20:53:33.278Z,41.64
2018-07-27T20:55:59.289Z,43.02
2018-07-27T20:58:25.291Z,40.72
2018-07-27T21:00:51.284Z,40.54
2018-07-27T21:03:17.288Z,41.44
2018-07-27T21:05:43.314Z,41.16
2018-07-27T21:08:09.354Z,42.50
2018-07-27T21:10:35.348Z,41.58
2018-07-27T21:13:01.370Z,42.12
2018-07-27T21:15:27.383Z,42.44
2018-07-27T21:17:53.383Z,42.20
2018-07-27T21:20:19.413Z,42.59
2018-07-27T21:22:45.408Z,42.97
2018-07-27T21:25:11.395Z,43.55
2018-07-27T21:27:37.415Z,44.85
2018-07-27T21:30:03.447Z,45.96
2018-07-27T21:32:29.439Z,45.94
2018-07-27T21:34:55.451Z,44.71
2018-07-27T21:37:21.441Z,47.00
2018-07-27T21:39:47.474Z,45.75
2018-07-27T21:42:13.511Z,45.85
2018-07-27T21:44:39.636Z,46.71
2018-07-27T21:47:05.681Z,46.27
2018-07-27T21:49:31.716Z,47.17
2018-07-27T21:51:57.750Z,48.22
2018-07-27T21:54:23.816Z,47.54
2018-07-27T21:56:50.882Z,47.44
2018-07-27T21:59:16.876Z,47.95
2018-07-27T22:01:42.917Z,47.31
2018-07-27T22:04:08.931Z,49.67
2018-07-27T22:06:35.126Z,48.71
2018-07-27T22:09:01.148Z,48.94
2018-07-27T22:11:27.167Z,49.55
2018-07-27T22:13:53.152Z,50.07
2018-07-27T22:16:19.150Z,50.48
2018-07-27T22:18:45.145Z,50.61
2018-07-27T22:21:11.159Z,49.92
2018-07-27T22:23:37.223Z,48.26
2018-07-27T22:26:03.211Z,49.12
2018-07-27T22:28:29.243Z,51.40
2018-07-27T22:30:55.267Z,50.01
2018-07-27T22:33:21.284Z,51.47
2018-07-27T22:35:47.354Z,52.08
2018-07-27T22:38:13.372Z,52.97
2018-07-27T22:40:39.387Z,51.96
2018-07-27T22:43:05.402Z,52.88
2018-07-27T22:45:31.800Z,51.98
2018-07-27T22:47:58.128Z,54.88
2018-07-27T22:50:24.145Z,53.08
2018-07-27T22:52:50.157Z,54.43
2018-07-27T22:55:16.163Z,53.80
2018-07-27T22:57:42.189Z,53.49
2018-07-27T23:00:08.245Z,55.04
2018-07-27T23:02:34.264Z,54.49
2018-07-27T23:05:00.278Z,53.80
2018-07-27T23:07:26.296Z,53.65
2018-07-27T23:09:52.336Z,54.30
2018-07-27T23:12:18.356Z,55.08
2018-07-27T23:14:44.388Z,53.49
2018-07-27T23:17:10.444Z,54.43
2018-07-27T23:19:36.463Z,55.89
2018-07-27T23:22:02.494Z,56.00
2018-07-27T23:24:28.577Z,54.51
2018-07-27T23:26:54.616Z,54.48
2018-07-27T23:29:20.901Z,53.32
2018-07-27T23:31:46.915Z,56.10
2018-07-27T23:34:12.909Z,54.55
2018-07-27T23:36:38.954Z,54.64
2018-07-27T23:39:04.991Z,54.84
2018-07-27T23:41:31.003Z,54.93
2018-07-27T23:43:57.014Z,54.76
2018-07-27T23:46:23.007Z,53.06
2018-07-27T23:48:49.322Z,52.27
2018-07-27T23:51:15.344Z,53.55
2018-07-27T23:53:41.367Z,53.41
2018-07-27T23:56:09.741Z,55.06
2018-07-27T23:58:35.760Z,54.43
